Time;durP1;ratioP1;P1;durP2;ratioP2;P2;SDS_P1;SDS_P2;PMS_P1;PMS_P2;Temp;Humidity;BMP_temperature;BMP_pressure;BME280_temperature;BME280_humidity;BME280_pressure;Samples;Min_cycle;Max_cycle;Signal;HPM_P1;HPM_P2
2022/06/09 00:00:12;;;;;;;;;3.00;1.67;;;;;15.71;62.90;101055.09;6267551;22;44657;-84
2022/06/09 00:02:41;;;;;;;;;6.50;4.25;;;;;15.66;62.98;101057.81;6289570;22;45213;-86
2022/06/09 00:05:09;;;;;;;;;4.25;4.25;;;;;15.65;62.98;101061.34;6300289;22;44746;-85
2022/06/09 00:07:35;;;;;;;;;2.50;2.50;;;;;15.65;63.23;101071.09;6274069;22;45752;-86
2022/06/09 00:10:08;;;;;;;;;3.25;2.75;;;;;15.59;63.19;101071.22;6262848;22;45498;-86
2022/06/09 00:12:34;;;;;;;;;5.75;5.50;;;;;15.60;62.85;101070.31;6281870;22;45358;-86
2022/06/09 00:15:04;;;;;;;;;5.00;3.00;;;;;15.59;63.03;101073.88;6258201;22;45431;-86
2022/06/09 00:17:30;;;;;;;;;2.00;2.00;;;;;15.58;63.00;101077.41;6260423;22;47210;-86
2022/06/09 00:19:55;;;;;;;;;4.00;2.00;;;;;15.55;63.32;101067.75;6258743;22;45335;-86
2022/06/09 00:22:20;;;;;;;;;2.50;2.25;;;;;15.57;63.54;101076.56;6287316;22;45174;-86
2022/06/09 00:24:46;;;;;;;;;3.75;3.75;;;;;15.54;63.80;101070.44;6255476;22;45284;-87
2022/06/09 00:27:12;;;;;;;;;4.00;4.00;;;;;15.58;63.49;101085.38;6253777;22;46817;-86
2022/06/09 00:29:38;;;;;;;;;3.50;3.50;;;;;15.55;63.59;101080.13;6253603;22;45333;-87
2022/06/09 00:32:04;;;;;;;;;3.00;3.00;;;;;15.50;63.47;101090.84;6280589;22;44760;-87
2022/06/09 00:34:30;;;;;;;;;4.00;3.00;;;;;15.48;63.08;101087.34;6278525;22;45354;-87
2022/06/09 00:36:55;;;;;;;;;6.25;5.50;;;;;15.46;63.42;101094.47;6255337;22;46994;-88
2022/06/09 00:39:21;;;;;;;;;2.00;1.00;;;;;15.46;63.59;101097.13;6257612;22;45203;-88
2022/06/09 00:41:46;;;;;;;;;5.00;3.00;;;;;15.43;63.20;101091.88;6254496;22;45399;-87
2022/06/09 00:44:24;;;;;;;;;3.75;2.00;;;;;15.35;63.42;101089.34;6254441;22;45280;-87
2022/06/09 00:46:55;;;;;;;;;3.75;3.75;;;;;15.34;63.42;101084.06;6253604;22;45968;-86
2022/06/09 00:49:29;;;;;;;;;5.00;3.00;;;;;15.26;63.64;101092.16;6254034;22;45363;-87
2022/06/09 00:51:58;;;;;;;;;4.00;2.25;;;;;15.20;63.72;101081.66;6254558;22;45516;-87
2022/06/09 00:54:30;;;;;;;;;3.00;2.50;;;;;15.17;63.71;101090.53;6261963;22;45186;-87
2022/06/09 00:57:34;;;;;;;;;3.50;3.50;;;;;15.15;64.16;101096.75;6256946;22;47643;-85
2022/06/09 01:00:07;;;;;;;;;2.00;1.75;;;;;15.14;63.78;101097.69;6252229;22;45363;-86
2022/06/09 01:02:33;;;;;;;;;4.00;3.00;;;;;15.06;64.17;101100.47;6251227;22;45398;-87
2022/06/09 01:05:02;;;;;;;;;4.00;3.00;;;;;15.06;64.37;101100.47;6277594;22;45391;-84
2022/06/09 01:07:35;;;;;;;;;6.00;4.00;;;;;15.02;64.33;101097.88;6281076;22;45207;-86
2022/06/09 01:10:01;;;;;;;;;3.50;2.00;;;;;15.04;64.44;101104.03;6254119;22;45347;-85
2022/06/09 01:12:34;;;;;;;;;4.00;4.00;;;;;15.03;64.44;101104.94;6280985;22;45430;-86
2022/06/09 01:15:07;;;;;;;;;5.00;3.25;;;;;15.00;64.92;101108.53;6252418;22;45361;-86
2022/06/09 01:17:51;;;;;;;;;5.00;3.00;;;;;14.95;64.91;101113.88;6252330;22;47814;-84
2022/06/09 01:20:23;;;;;;;;;2.00;2.00;;;;;14.94;64.58;101114.81;6282069;22;45157;-86
2022/06/09 01:23:07;;;;;;;;;5.00;3.25;;;;;14.93;65.17;101120.13;6253749;22;45501;-86
2022/06/09 01:26:03;;;;;;;;;3.00;2.00;;;;;14.91;64.89;101106.88;6281491;22;45155;-85
2022/06/09 01:28:35;;;;;;;;;4.00;3.33;;;;;14.87;64.82;101113.13;6279722;22;47525;-85
2022/06/09 01:31:10;;;;;;;;;6.00;5.00;;;;;14.85;65.19;101119.34;6278737;22;45143;-85
2022/06/09 01:33:57;;;;;;;;;3.67;2.67;;;;;14.82;64.96;101127.38;6289428;22;45193;-84
2022/06/09 01:36:26;;;;;;;;;4.00;2.75;;;;;14.77;65.13;101125.63;6270744;22;44944;-84
2022/06/09 01:38:55;;;;;;;;;2.00;2.00;;;;;14.69;64.99;101111.63;6269828;22;47091;-85
2022/06/09 01:41:23;;;;;;;;;3.25;3.25;;;;;14.70;65.41;101128.41;6275053;22;45061;-86
2022/06/09 01:43:50;;;;;;;;;2.75;2.75;;;;;14.64;65.89;101110.81;6277261;22;44766;-86
2022/06/09 01:46:19;;;;;;;;;3.50;2.25;;;;;14.66;65.31;101124.94;6301744;22;44708;-87
2022/06/09 01:48:46;;;;;;;;;2.67;2.00;;;;;14.64;65.86;101124.06;6255157;22;47135;-85
2022/06/09 01:51:16;;;;;;;;;3.75;2.00;;;;;14.59;65.77;101123.25;6252454;22;45279;-86
2022/06/09 01:54:30;;;;;;;;;3.00;3.00;;;;;14.58;66.32;101136.53;6252705;22;45253;-86
2022/06/09 01:57:14;;;;;;;;;3.75;3.00;;;;;14.58;66.13;101131.25;6217120;22;46080;-86
2022/06/09 01:59:45;;;;;;;;;3.25;3.00;;;;;14.60;66.29;101129.47;6254540;22;48675;-87
2022/06/09 02:02:19;;;;;;;;;3.00;3.00;;;;;14.60;66.56;101135.63;6280278;22;45311;-85
2022/06/09 02:04:59;;;;;;;;;5.50;3.75;;;;;14.59;66.27;101140.94;6280920;22;45314;-87
2022/06/09 02:07:28;;;;;;;;;5.75;5.00;;;;;14.63;66.18;101150.59;6280481;22;45418;-86
2022/06/09 02:09:54;;;;;;;;;4.00;3.00;;;;;14.60;66.41;101154.19;6252263;22;47354;-85
2022/06/09 02:12:23;;;;;;;;;2.50;2.50;;;;;14.60;66.34;101161.25;6280892;22;45362;-85
2022/06/09 02:14:52;;;;;;;;;5.00;4.00;;;;;14.59;66.43;101165.66;6279875;22;45317;-87
2022/06/09 02:17:18;;;;;;;;;3.00;3.00;;;;;14.57;66.56;101154.22;6257324;22;45432;-87
2022/06/09 02:19:46;;;;;;;;;3.00;1.50;;;;;14.50;66.53;101156.03;6256096;22;48707;-86
2022/06/09 02:22:13;;;;;;;;;5.00;3.75;;;;;14.54;66.71;101156.88;6254337;22;45428;-87
2022/06/09 02:24:39;;;;;;;;;2.25;2.25;;;;;14.53;66.92;101166.63;6278255;22;45292;-86
2022/06/09 02:27:05;;;;;;;;;5.00;5.00;;;;;14.52;66.62;101153.38;6251934;22;45240;-85
2022/06/09 02:29:31;;;;;;;;;3.50;3.25;;;;;14.49;66.35;101161.38;6252286;22;47500;-87
2022/06/09 02:31:57;;;;;;;;;4.50;3.00;;;;;14.48;66.29;101159.59;6252726;22;45194;-86
2022/06/09 02:34:22;;;;;;;;;5.00;5.00;;;;;14.43;66.73;101159.63;6251890;22;45518;-86
2022/06/09 02:36:48;;;;;;;;;3.75;3.75;;;;;14.45;66.43;101154.34;6277581;22;45897;-87
2022/06/09 02:39:13;;;;;;;;;3.75;3.00;;;;;14.39;66.82;101138.53;6251520;22;47050;-86
2022/06/09 02:41:39;;;;;;;;;1.75;1.75;;;;;14.42;66.47;101160.56;6277590;22;45623;-85
2022/06/09 02:44:05;;;;;;;;;5.25;2.25;;;;;14.41;66.55;101153.50;6280211;22;45290;-86
2022/06/09 02:46:31;;;;;;;;;4.75;3.75;;;;;14.39;66.59;101159.72;6280169;22;45282;-87
2022/06/09 02:48:57;;;;;;;;;4.00;3.00;;;;;14.35;66.38;101158.88;6252306;22;46742;-87
2022/06/09 02:51:31;;;;;;;;;7.67;3.00;;;;;14.38;66.86;101169.44;6278176;22;45221;-86
2022/06/09 02:53:59;;;;;;;;;3.75;3.00;;;;;14.38;66.66;101166.81;6252637;22;45550;-87
2022/06/09 02:56:25;;;;;;;;;6.00;4.50;;;;;14.39;66.91;101165.91;6260722;22;45478;-87
2022/06/09 02:58:51;;;;;;;;;4.00;4.00;;;;;14.35;66.72;101164.16;6285039;22;47024;-86
2022/06/09 03:01:17;;;;;;;;;3.00;3.00;;;;;14.32;66.79;101159.78;6253785;22;45154;-86
2022/06/09 03:03:43;;;;;;;;;5.25;5.25;;;;;14.34;67.04;101170.38;6280176;22;45300;-87
2022/06/09 03:06:08;;;;;;;;;5.67;2.00;;;;;14.28;67.35;101166.03;6277587;22;45489;-86
2022/06/09 03:08:34;;;;;;;;;6.00;4.00;;;;;14.30;66.94;101174.84;6251441;22;48075;-86
2022/06/09 03:11:00;;;;;;;;;3.75;1.75;;;;;14.29;67.20;101178.38;6251479;22;45367;-85
2022/06/09 03:13:25;;;;;;;;;3.25;2.00;;;;;14.24;67.21;101166.94;6251748;22;45400;-85
2022/06/09 03:15:51;;;;;;;;;5.75;3.50;;;;;14.25;67.23;101162.56;6252288;22;45359;-85
2022/06/09 03:18:18;;;;;;;;;4.75;2.00;;;;;14.24;67.33;101155.47;6252403;22;48065;-85
2022/06/09 03:20:44;;;;;;;;;4.25;2.50;;;;;14.24;67.07;101169.59;6281987;22;45160;-85
2022/06/09 03:23:10;;;;;;;;;2.75;2.50;;;;;14.18;67.73;101156.44;6281934;22;45228;-85
2022/06/09 03:25:36;;;;;;;;;5.00;5.00;;;;;14.20;67.63;101167.03;6252246;22;45248;-85
2022/06/09 03:28:02;;;;;;;;;4.00;3.25;;;;;14.16;67.65;101162.66;6280137;22;46212;-85
2022/06/09 03:30:28;;;;;;;;;4.75;4.75;;;;;14.17;67.68;101178.53;6254050;22;45368;-84
2022/06/09 03:32:53;;;;;;;;;5.50;3.00;;;;;14.15;67.76;101175.00;6280655;22;45275;-85
2022/06/09 03:35:19;;;;;;;;;5.00;4.25;;;;;14.11;67.40;101182.13;6253344;22;45759;-84
2022/06/09 03:37:44;;;;;;;;;6.25;5.25;;;;;14.13;67.93;101192.69;6278597;22;47988;-86
2022/06/09 03:40:16;;;;;;;;;5.25;4.25;;;;;14.12;67.80;101191.81;6279628;22;45402;-86
2022/06/09 03:42:42;;;;;;;;;7.50;6.00;;;;;14.08;67.78;101190.06;6279814;22;45206;-86
2022/06/09 03:45:08;;;;;;;;;2.50;2.50;;;;;14.11;68.09;101198.00;6252104;22;45342;-86
2022/06/09 03:47:33;;;;;;;;;4.75;3.00;;;;;14.13;67.82;101197.97;6279391;22;45285;-85
2022/06/09 03:49:59;;;;;;;;;5.75;5.00;;;;;14.13;67.84;101201.50;6251578;22;45372;-86
2022/06/09 03:52:24;;;;;;;;;4.50;3.00;;;;;14.16;67.99;101207.66;6276976;22;45261;-85
2022/06/09 03:54:50;;;;;;;;;3.00;3.00;;;;;14.16;68.05;101216.47;6277850;22;45264;-87
2022/06/09 03:57:15;;;;;;;;;4.00;2.75;;;;;14.17;68.17;101214.72;6279850;22;45273;-86
2022/06/09 03:59:41;;;;;;;;;5.00;3.00;;;;;14.16;67.60;101218.25;6279854;22;45224;-85
2022/06/09 04:02:07;;;;;;;;;5.50;5.00;;;;;14.12;67.74;101226.22;6245946;22;45225;-85
2022/06/09 04:04:32;;;;;;;;;4.50;3.75;;;;;14.14;68.15;101226.22;6248896;22;45173;-85
2022/06/09 04:06:59;;;;;;;;;5.00;3.50;;;;;14.15;67.94;101225.31;6248858;22;46469;-85
2022/06/09 04:09:24;;;;;;;;;5.50;4.25;;;;;14.16;68.22;101229.72;6246875;22;45268;-86
2022/06/09 04:11:50;;;;;;;;;4.50;4.00;;;;;14.15;68.01;101225.31;6221261;22;45291;-86
2022/06/09 04:14:15;;;;;;;;;6.00;5.00;;;;;14.15;68.16;101224.44;6247002;22;45456;-85
2022/06/09 04:16:46;;;;;;;;;4.00;4.00;;;;;14.16;68.06;101228.84;6250472;22;46258;-85
2022/06/09 04:19:15;;;;;;;;;6.75;6.00;;;;;14.18;68.13;101235.00;6248255;22;45401;-89
2022/06/09 04:21:43;;;;;;;;;5.75;4.25;;;;;14.18;68.09;101241.19;6249047;22;45265;-86
2022/06/09 04:24:08;;;;;;;;;2.75;2.75;;;;;14.18;68.57;101238.53;6247889;22;45410;-85
2022/06/09 04:26:36;;;;;;;;;5.25;4.00;;;;;14.19;67.99;101239.41;6247496;22;48172;-84
2022/06/09 04:29:05;;;;;;;;;6.25;4.75;;;;;14.21;68.34;101240.25;6250375;22;45279;-88
2022/06/09 04:31:30;;;;;;;;;3.00;2.75;;;;;14.26;68.31;101255.22;6274780;22;45210;-84
2022/06/09 04:33:56;;;;;;;;;3.50;2.50;;;;;14.23;68.24;101252.59;6272330;22;45136;-85
2022/06/09 04:36:21;;;;;;;;;5.00;5.00;;;;;14.26;68.28;101252.56;6248426;22;45407;-84
2022/06/09 04:38:47;;;;;;;;;5.00;4.75;;;;;14.28;67.92;101249.91;6246720;22;45515;-86
2022/06/09 04:41:15;;;;;;;;;5.75;4.25;;;;;14.27;67.79;101256.97;6248624;22;45258;-85
2022/06/09 04:43:44;;;;;;;;;6.00;3.25;;;;;14.29;67.86;101265.75;6248771;22;45399;-83
2022/06/09 04:46:15;;;;;;;;;5.75;5.00;;;;;14.29;67.98;101273.72;6246571;22;47852;-84
2022/06/09 04:48:41;;;;;;;;;6.50;3.00;;;;;14.30;67.92;101264.91;6247827;22;45418;-84
2022/06/09 04:51:09;;;;;;;;;5.00;3.50;;;;;14.34;67.84;101276.31;6246067;22;45201;-83
2022/06/09 04:53:35;;;;;;;;;8.25;6.25;;;;;14.33;67.81;101271.94;6246203;22;45463;-87
2022/06/09 04:56:01;;;;;;;;;0.75;0.75;;;;;14.35;68.14;101270.13;6245962;22;47090;-85
2022/06/09 04:58:26;;;;;;;;;5.00;5.00;;;;;14.43;67.74;101288.56;6244932;22;45280;-87
2022/06/09 05:01:18;;;;;;;;;5.00;4.00;;;;;14.46;68.17;101294.75;6232437;22;45178;-83
2022/06/09 05:03:45;;;;;;;;;6.00;4.00;;;;;14.46;67.96;101289.44;6223207;22;45428;-80
2022/06/09 05:06:10;;;;;;;;;5.75;4.75;;;;;14.46;67.91;101292.09;6189663;22;47022;-83
2022/06/09 05:08:36;;;;;;;;;6.00;6.00;;;;;14.50;67.81;101291.16;6189629;22;45210;-83
2022/06/09 05:11:02;;;;;;;;;4.00;4.00;;;;;14.53;68.06;101301.75;6217065;22;45155;-83
2022/06/09 05:13:28;;;;;;;;;6.75;5.75;;;;;14.48;67.82;101284.97;6189441;22;45365;-83
2022/06/09 05:15:56;;;;;;;;;6.25;3.75;;;;;14.51;67.73;101297.31;6217144;22;46136;-86
2022/06/09 05:18:25;;;;;;;;;7.00;5.00;;;;;14.57;67.54;101294.66;6190171;22;45317;-84
2022/06/09 05:21:30;;;;;;;;;4.00;4.00;;;;;14.61;68.11;101303.44;6189397;22;45262;-81
2022/06/09 05:23:59;;;;;;;;;4.00;3.00;;;;;14.60;67.92;101312.28;6188767;22;45270;-76
2022/06/09 05:26:24;;;;;;;;;4.50;4.50;;;;;14.63;67.57;101307.81;6188574;22;46165;-78
2022/06/09 05:28:50;;;;;;;;;4.75;4.75;;;;;14.68;67.66;101318.38;6216483;22;45273;-75
2022/06/09 05:31:15;;;;;;;;;6.25;4.75;;;;;14.72;67.81;101325.38;6189430;22;45372;-78
2022/06/09 05:33:42;;;;;;;;;6.00;5.00;;;;;14.73;67.24;101329.81;6184656;22;45468;-81
2022/06/09 05:36:08;;;;;;;;;6.00;3.50;;;;;14.76;67.74;101321.81;6186371;22;47486;-80
2022/06/09 05:46:48;;;;;;;;;6.50;4.75;;;;;14.88;67.55;101339.34;6216102;22;45716;-78
2022/06/09 05:49:15;;;;;;;;;6.25;5.00;;;;;14.91;67.67;101348.13;6214173;22;45538;-79
2022/06/09 05:51:41;;;;;;;;;3.00;3.00;;;;;14.94;67.55;101349.88;6189227;22;45278;-78
2022/06/09 05:54:06;;;;;;;;;4.00;3.50;;;;;14.97;67.80;101353.38;6215633;22;45528;-79
2022/06/09 05:56:31;;;;;;;;;8.75;5.00;;;;;15.02;67.68;101353.31;6214333;22;45317;-78
2022/06/09 05:58:57;;;;;;;;;8.50;6.75;;;;;15.10;67.57;101354.09;6216644;22;45179;-79
2022/06/09 06:01:22;;;;;;;;;3.33;2.00;;;;;15.18;67.33;101351.34;6218361;22;45118;-79
2022/06/09 06:03:48;;;;;;;;;8.00;4.25;;;;;15.22;66.96;101359.25;6246721;22;45338;-79
2022/06/09 06:08:57;;;;;;;;;5.75;4.00;;;;;15.30;66.94;101367.09;6246699;22;45201;-79
2022/06/09 06:11:23;;;;;;;;;4.00;4.00;;;;;15.36;66.84;101371.44;6219145;22;45387;-78
2022/06/09 06:13:49;;;;;;;;;3.00;3.00;;;;;15.43;66.87;101366.03;6246829;22;45334;-78
2022/06/09 06:16:15;;;;;;;;;4.75;3.75;;;;;15.56;67.07;101376.50;6248014;22;45386;-79
2022/06/09 06:18:41;;;;;;;;;4.67;3.33;;;;;15.68;66.63;101378.09;6247787;22;45276;-79
2022/06/09 06:21:06;;;;;;;;;7.50;7.00;;;;;15.77;66.27;101381.53;6248442;22;45585;-79
2022/06/09 06:23:32;;;;;;;;;5.50;5.00;;;;;15.89;66.28;101377.78;6248195;22;45213;-79
2022/06/09 06:25:58;;;;;;;;;6.50;4.25;;;;;16.02;66.14;101381.13;6247932;22;45350;-79
2022/06/09 06:28:27;;;;;;;;;5.00;4.00;;;;;16.13;65.66;101378.31;6246455;22;45201;-80
2022/06/09 06:30:53;;;;;;;;;5.00;5.00;;;;;16.27;65.51;101386.91;6220537;22;45540;-79
2022/06/09 06:33:19;;;;;;;;;3.75;3.75;;;;;16.31;64.77;101389.50;6220690;22;45499;-80
2022/06/09 06:35:45;;;;;;;;;5.67;5.00;;;;;16.31;64.67;101399.25;6220483;22;48262;-80
2022/06/09 06:38:10;;;;;;;;;4.75;4.00;;;;;16.27;64.70;101394.88;6248407;22;45217;-79
2022/06/09 06:40:36;;;;;;;;;4.00;3.00;;;;;16.24;64.77;101392.28;6220369;22;45421;-79
2022/06/09 06:43:01;;;;;;;;;3.25;3.25;;;;;16.22;64.55;101394.94;6248293;22;45277;-79
2022/06/09 06:45:27;;;;;;;;;1.50;1.50;;;;;16.23;64.65;101395.84;6220499;22;47726;-79
2022/06/09 06:47:54;;;;;;;;;4.75;4.75;;;;;16.29;64.53;101401.94;6220798;22;45154;-79
2022/06/09 06:50:19;;;;;;;;;3.75;3.75;;;;;16.32;64.41;101403.66;6220511;22;45176;-79
2022/06/09 06:52:45;;;;;;;;;7.67;5.33;;;;;16.29;64.00;101399.28;6220287;22;45323;-79
2022/06/09 06:55:14;;;;;;;;;4.00;4.00;;;;;16.28;64.47;101399.31;6220349;22;45804;-79
2022/06/09 06:57:40;;;;;;;;;4.00;4.00;;;;;16.30;64.45;101401.03;6248283;22;45264;-79
2022/06/09 07:00:07;;;;;;;;;4.67;3.00;;;;;16.32;64.23;101407.19;6248261;22;45366;-80
2022/06/09 07:02:32;;;;;;;;;7.67;6.00;;;;;16.31;63.75;101413.41;6219941;22;45347;-80
2022/06/09 07:04:58;;;;;;;;;6.50;4.00;;;;;16.31;64.01;101420.50;6219963;22;45653;-79
2022/06/09 07:07:24;;;;;;;;;6.67;5.00;;;;;16.32;63.88;101428.44;6247872;22;45180;-79
2022/06/09 07:09:50;;;;;;;;;4.00;4.00;;;;;16.36;63.86;101431.94;6248266;22;45279;-79
2022/06/09 07:12:15;;;;;;;;;2.75;2.00;;;;;16.42;63.81;101434.50;6247794;22;45419;-79
2022/06/09 07:14:41;;;;;;;;;5.75;3.75;;;;;16.48;63.10;101431.72;6245856;22;47233;-79
2022/06/09 07:17:06;;;;;;;;;7.00;4.00;;;;;16.58;63.28;101436.91;6247957;22;45147;-79
2022/06/09 07:19:32;;;;;;;;;7.00;5.25;;;;;16.70;62.79;101440.19;6220458;22;45249;-79
2022/06/09 07:21:58;;;;;;;;;4.50;4.50;;;;;16.86;62.31;101451.47;6220079;22;45719;-79
2022/06/09 07:24:25;;;;;;;;;5.00;5.00;;;;;16.98;61.66;101459.22;6247543;22;45376;-79
2022/06/09 07:26:51;;;;;;;;;6.33;6.33;;;;;17.10;61.40;101457.22;6247455;22;45364;-79
2022/06/09 07:29:17;;;;;;;;;7.00;6.00;;;;;17.19;60.98;101452.63;6247948;22;45359;-79
2022/06/09 07:31:43;;;;;;;;;5.75;5.50;;;;;17.31;60.79;101456.81;6220261;22;45443;-79
2022/06/09 07:34:08;;;;;;;;;6.33;5.00;;;;;17.45;60.53;101456.53;6247677;22;45427;-79
2022/06/09 07:36:34;;;;;;;;;9.00;6.00;;;;;17.57;59.56;101461.59;6220113;22;45203;-80
2022/06/09 07:38:59;;;;;;;;;5.00;5.00;;;;;17.70;59.17;101448.91;6220148;22;45246;-80
2022/06/09 07:41:25;;;;;;;;;6.00;5.00;;;;;17.85;59.09;101467.25;6247531;22;45142;-79
2022/06/09 07:43:51;;;;;;;;;6.75;5.75;;;;;17.95;58.96;101459.91;6220110;22;46789;-79
2022/06/09 07:46:17;;;;;;;;;5.33;4.00;;;;;17.97;58.75;101470.53;6220245;22;45185;-79
2022/06/09 07:48:45;;;;;;;;;5.00;3.50;;;;;17.92;58.12;101473.31;6245888;22;45189;-79
2022/06/09 07:51:10;;;;;;;;;5.00;4.67;;;;;17.85;58.29;101480.56;6219761;22;45845;-80
2022/06/09 07:53:36;;;;;;;;;7.00;6.00;;;;;17.79;58.55;101472.69;6247632;22;45371;-79
2022/06/09 07:56:01;;;;;;;;;5.50;4.00;;;;;17.74;58.23;101482.53;6219846;22;45688;-79
2022/06/09 07:58:26;;;;;;;;;7.00;6.00;;;;;17.70;58.36;101475.53;6246112;22;45190;-79
2022/06/09 08:00:52;;;;;;;;;6.00;6.00;;;;;17.70;58.21;101472.88;6247928;22;45438;-80
2022/06/09 08:03:21;;;;;;;;;3.75;3.00;;;;;17.79;58.18;101474.50;6214630;22;47254;-79
2022/06/09 08:05:47;;;;;;;;;7.75;7.00;;;;;17.93;57.81;101472.38;6216353;22;45258;-79
2022/06/09 08:08:13;;;;;;;;;7.00;6.00;;;;;18.15;57.57;101470.13;6189950;22;45367;-79
2022/06/09 08:10:39;;;;;;;;;6.50;5.25;;;;;18.37;57.29;101472.28;6214589;22;45459;-79
2022/06/09 08:13:05;;;;;;;;;5.75;5.75;;;;;18.56;56.93;101481.56;6189239;22;47414;-78
2022/06/09 08:15:31;;;;;;;;;3.33;3.33;;;;;18.63;56.87;101474.28;6214693;22;45505;-79
2022/06/09 08:18:01;;;;;;;;;5.00;4.33;;;;;18.60;56.21;101488.56;6217025;22;45509;-79
2022/06/09 08:20:28;;;;;;;;;6.75;5.25;;;;;18.51;56.59;101487.00;6189061;22;46078;-79
2022/06/09 08:23:02;;;;;;;;;8.00;5.33;;;;;18.40;55.90;101489.06;6216224;22;46905;-79
2022/06/09 08:25:30;;;;;;;;;7.67;6.67;;;;;18.37;55.77;101493.59;6188469;22;45475;-78
2022/06/09 08:27:57;;;;;;;;;5.00;3.33;;;;;18.37;56.38;101493.59;6189699;22;45297;-78
2022/06/09 08:30:23;;;;;;;;;7.67;6.33;;;;;18.38;56.35;101504.22;6189104;22;45357;-79
2022/06/09 08:32:49;;;;;;;;;6.00;6.00;;;;;18.33;56.09;101503.44;6216675;22;45255;-79
2022/06/09 08:35:16;;;;;;;;;7.00;5.00;;;;;18.35;56.18;101508.75;6216885;22;45185;-79
2022/06/09 08:37:48;;;;;;;;;5.25;5.00;;;;;18.35;55.61;101506.97;6216471;22;45215;-79
2022/06/09 08:40:21;;;;;;;;;7.33;5.33;;;;;18.40;55.57;101497.06;6216769;22;45255;-78
2022/06/09 08:42:52;;;;;;;;;4.00;4.00;;;;;18.54;55.22;101514.50;6216557;22;45427;-80
2022/06/09 08:45:40;;;;;;;;;5.00;5.00;;;;;18.63;54.26;101498.28;6217030;22;45238;-79
2022/06/09 08:48:13;;;;;;;;;3.00;3.00;;;;;18.72;54.27;101492.72;6216560;22;45280;-78
2022/06/09 08:50:42;;;;;;;;;4.67;4.67;;;;;18.85;54.20;101496.00;6216304;22;45340;-79
2022/06/09 08:53:30;;;;;;;;;5.00;4.00;;;;;18.99;54.09;101493.81;6214429;22;47108;-78
2022/06/09 08:56:08;;;;;;;;;6.00;4.00;;;;;19.09;53.44;101495.34;6215991;22;45241;-79
2022/06/09 08:58:40;;;;;;;;;4.67;3.00;;;;;19.13;53.05;101488.09;6216292;22;45396;-79
2022/06/09 09:01:29;;;;;;;;;3.00;1.67;;;;;19.13;53.17;101493.44;6188653;22;45400;-78
2022/06/09 09:04:11;;;;;;;;;6.67;4.00;;;;;19.09;52.79;101490.00;6247027;22;45886;-79
2022/06/09 09:06:56;;;;;;;;;6.67;6.00;;;;;19.21;53.19;101483.44;6247042;22;45385;-79
2022/06/09 09:09:29;;;;;;;;;4.00;4.00;;;;;19.42;52.92;101479.28;6247094;22;45253;-79
2022/06/09 09:12:03;;;;;;;;;2.33;2.33;;;;;19.58;52.37;101482.38;6247109;22;45172;-80
2022/06/09 09:14:40;;;;;;;;;2.67;2.67;;;;;19.71;52.09;101481.13;6247086;22;46458;-80
2022/06/09 09:17:42;;;;;;;;;4.00;2.33;;;;;19.89;51.81;101481.50;6247248;22;45188;-80
2022/06/09 09:20:46;;;;;;;;;4.00;2.33;;;;;20.02;50.93;101488.22;6246813;22;45331;-80
2022/06/09 09:23:14;;;;;;;;;4.00;4.00;;;;;20.12;50.63;101491.47;6210091;22;45376;-80
2022/06/09 09:25:54;;;;;;;;;5.00;4.00;;;;;20.19;50.05;101488.56;6246520;22;46156;-79
2022/06/09 09:28:27;;;;;;;;;4.00;3.00;;;;;20.23;50.01;101495.59;6246901;22;45266;-80
2022/06/09 09:31:01;;;;;;;;;4.67;4.67;;;;;20.32;49.92;101496.22;6246193;22;45237;-80
2022/06/09 09:33:28;;;;;;;;;2.33;2.33;;;;;20.41;49.85;101499.44;6246692;22;45178;-79
2022/06/09 09:36:14;;;;;;;;;2.67;2.00;;;;;20.54;49.73;101499.09;6218836;22;48290;-79
2022/06/09 09:38:45;;;;;;;;;3.00;2.00;;;;;20.69;49.34;101494.09;6219267;22;45819;-79
2022/06/09 09:41:27;;;;;;;;;5.00;3.67;;;;;20.88;48.94;101490.78;6218719;22;45193;-79
2022/06/09 09:43:55;;;;;;;;;5.00;3.00;;;;;21.06;47.85;101484.81;6218288;22;45391;-81
2022/06/09 09:46:28;;;;;;;;;6.00;4.33;;;;;21.22;47.32;101492.25;6246460;22;45122;-80
2022/06/09 09:48:59;;;;;;;;;4.33;4.33;;;;;21.28;46.64;101497.41;6219505;22;45258;-79
2022/06/09 09:51:34;;;;;;;;;4.67;3.67;;;;;21.26;46.89;101497.47;6246083;22;45205;-80
2022/06/09 09:54:08;;;;;;;;;3.67;3.67;;;;;21.35;46.74;101496.25;6247456;22;45387;-80
2022/06/09 09:56:36;;;;;;;;;3.00;3.00;;;;;21.45;45.85;101505.72;6247135;22;45724;-80
2022/06/09 09:59:16;;;;;;;;;3.33;3.00;;;;;21.52;45.25;101509.06;6247758;22;45383;-80
2022/06/09 10:10:10;;;;;;;;;3.67;2.00;;;;;21.54;45.37;101524.16;6247165;22;45422;-79
2022/06/09 10:12:39;;;;;;;;;4.00;2.00;;;;;21.48;45.73;101528.84;6247811;22;45319;-80
2022/06/09 10:15:10;;;;;;;;;3.33;3.33;;;;;21.49;45.41;101530.59;6220285;22;45353;-79
2022/06/09 10:17:43;;;;;;;;;4.67;4.00;;;;;21.51;45.17;101529.59;6245506;22;47140;-79
2022/06/09 10:20:30;;;;;;;;;3.00;2.67;;;;;21.57;44.82;101537.44;6245683;22;45409;-79
2022/06/09 10:23:06;;;;;;;;;3.00;1.67;;;;;21.53;44.53;101526.88;6248020;22;45303;-79
2022/06/09 10:25:34;;;;;;;;;3.00;2.00;;;;;21.54;44.76;101542.91;6245680;22;45835;-81
2022/06/09 10:28:10;;;;;;;;;4.00;3.67;;;;;21.50;43.91;101543.94;6247832;22;45294;-79
2022/06/09 10:30:43;;;;;;;;;4.33;4.00;;;;;21.53;44.07;101527.75;6246006;22;46029;-80
2022/06/09 10:33:20;;;;;;;;;2.33;2.33;;;;;21.55;44.21;101536.63;6220489;22;45126;-80
2022/06/09 10:36:19;;;;;;;;;2.67;2.67;;;;;21.54;44.10;101532.19;6248240;22;45248;-80
2022/06/09 10:38:54;;;;;;;;;0.00;0.00;;;;;21.54;44.14;101532.19;6180238;22;47044;-80
2022/06/09 10:41:35;;;;;;;;;2.00;2.00;;;;;21.68;44.59;101534.38;6247669;22;45370;-80
2022/06/09 10:44:17;;;;;;;;;4.33;2.33;;;;;21.85;44.50;101532.84;6248165;22;45265;-79
2022/06/09 10:55:56;;;;;;;;;4.00;3.00;;;;;22.17;43.84;101545.88;6227485;22;45286;-79
2022/06/09 10:58:47;;;;;;;;;3.00;3.00;;;;;22.27;43.69;101548.25;6247879;22;45363;-80
2022/06/09 11:01:27;;;;;;;;;3.00;2.00;;;;;22.37;43.47;101545.13;6247471;22;46060;-81
2022/06/09 11:03:53;;;;;;;;;2.00;2.00;;;;;22.49;43.27;101548.25;6219883;22;45739;-80
2022/06/09 11:06:46;;;;;;;;;3.00;3.00;;;;;22.63;42.92;101544.03;6247972;22;45127;-79
2022/06/09 11:10:00;;;;;;;;;2.33;2.00;;;;;22.82;42.33;101549.53;6245430;22;45570;-79
2022/06/09 11:13:22;;;;;;;;;4.33;3.33;;;;;22.92;41.77;101541.97;6199489;22;47268;-79
2022/06/09 11:15:57;;;;;;;;;3.67;1.33;;;;;23.02;41.35;101550.53;6123551;23;45223;-79
2022/06/09 11:18:39;;;;;;;;;2.00;2.00;;;;;23.03;40.89;101558.53;6124561;23;45324;-79
2022/06/09 11:21:11;;;;;;;;;3.67;3.67;;;;;23.04;40.75;101548.63;6191497;22;45505;-80
2022/06/09 11:23:57;;;;;;;;;2.00;2.00;;;;;23.01;40.66;101560.38;6245751;22;48107;-79
2022/06/09 11:26:42;;;;;;;;;4.00;2.00;;;;;23.01;40.53;101551.47;6218476;22;45329;-81
2022/06/09 11:29:33;;;;;;;;;3.00;2.33;;;;;23.06;39.98;101539.56;6220266;22;45315;-79
2022/06/09 11:32:22;;;;;;;;;5.67;4.00;;;;;23.25;40.22;101541.47;6247667;22;45379;-79
2022/06/09 11:34:58;;;;;;;;;5.00;3.00;;;;;23.49;39.56;101548.44;6247421;22;46064;-79
2022/06/09 11:37:32;;;;;;;;;3.00;3.00;;;;;23.66;39.47;101546.81;6245083;22;45210;-79
2022/06/09 11:40:14;;;;;;;;;4.33;4.33;;;;;23.77;39.23;101542.72;6245329;22;45359;-79
2022/06/09 11:42:48;;;;;;;;;2.33;2.33;;;;;23.90;39.04;101548.41;6219816;22;45281;-79
2022/06/09 11:45:22;;;;;;;;;5.00;3.00;;;;;23.96;39.17;101556.19;6247436;22;45391;-79
2022/06/09 11:47:50;;;;;;;;;4.00;2.67;;;;;24.03;39.14;101562.16;6247854;22;45158;-80
2022/06/09 11:50:18;;;;;;;;;2.33;2.33;;;;;24.08;38.20;101559.22;6247479;22;45276;-78
2022/06/09 11:52:49;;;;;;;;;6.33;3.67;;;;;24.13;37.99;101546.44;6247426;22;45461;-79
2022/06/09 11:55:59;;;;;;;;;2.33;2.00;;;;;24.21;38.32;101550.50;6247325;22;45419;-79
2022/06/09 11:58:34;;;;;;;;;1.00;1.00;;;;;24.35;37.28;101552.56;6245473;22;45188;-81
2022/06/09 12:01:18;;;;;;;;;2.00;2.00;;;;;24.40;38.00;101546.94;6220367;22;45179;-80
2022/06/09 12:04:14;;;;;;;;;2.00;2.00;;;;;24.49;37.71;101551.91;6247012;22;45114;-79
2022/06/09 12:06:59;;;;;;;;;1.67;1.67;;;;;24.65;38.34;101552.88;6245334;22;47401;-79
2022/06/09 12:09:34;;;;;;;;;3.00;1.00;;;;;24.75;37.45;101560.50;6245181;22;45762;-81